createdAt,value
2019-03-06T00:01:58.101Z,3.60
2019-03-06T00:07:00.902Z,3.60
2019-03-06T00:12:04.072Z,3.60
2019-03-06T00:17:10.032Z,3.80
2019-03-06T00:22:12.874Z,3.90
2019-03-06T00:27:15.737Z,3.70
2019-03-06T00:32:19.574Z,3.60
2019-03-06T00:37:22.481Z,3.60
2019-03-06T00:42:25.430Z,3.60
2019-03-06T00:47:28.300Z,3.60
2019-03-06T00:52:35.638Z,3.70
2019-03-06T00:57:38.650Z,3.70
2019-03-06T01:02:41.596Z,3.70
2019-03-06T01:07:44.579Z,3.70
2019-03-06T01:12:47.620Z,4.00
2019-03-06T01:17:50.695Z,4.10
2019-03-06T01:23:05.600Z,4.10
2019-03-06T01:28:20.948Z,4.00
2019-03-06T01:34:00.203Z,4.00
2019-03-06T01:39:34.236Z,4.20
2019-03-06T01:44:46.866Z,4.20
2019-03-06T01:50:01.575Z,4.20
2019-03-06T01:55:15.365Z,4.10
2019-03-06T02:00:26.381Z,4.20
2019-03-06T02:05:34.002Z,4.10
2019-03-06T02:10:56.762Z,4.00
2019-03-06T02:16:08.982Z,4.20
2019-03-06T02:21:36.663Z,4.00
2019-03-06T02:26:43.223Z,4.20
2019-03-06T02:31:53.236Z,4.20
2019-03-06T02:37:03.978Z,4.00
2019-03-06T02:42:10.097Z,4.00
2019-03-06T02:47:21.763Z,4.00
2019-03-06T02:52:26.080Z,4.20
2019-03-06T02:57:37.547Z,4.20
2019-03-06T03:03:05.741Z,4.40
2019-03-06T03:08:09.903Z,4.30
2019-03-06T03:13:16.355Z,4.40
2019-03-06T03:18:23.247Z,4.30
2019-03-06T03:23:32.913Z,4.40
2019-03-06T03:28:44.368Z,4.40
2019-03-06T03:33:52.555Z,4.20
2019-03-06T03:38:59.748Z,3.80
2019-03-06T03:44:05.721Z,3.90
2019-03-06T03:49:12.571Z,4.10
2019-03-06T03:54:27.188Z,4.00
2019-03-06T03:59:34.935Z,3.90
2019-03-06T04:04:44.320Z,3.90
2019-03-06T04:09:52.792Z,3.80
2019-03-06T04:14:57.737Z,4.10
2019-03-06T04:20:01.672Z,4.00
2019-03-06T04:25:07.846Z,3.80
2019-03-06T04:30:14.746Z,3.80
2019-03-06T04:35:19.368Z,4.00
2019-03-06T04:40:23.616Z,4.00
2019-03-06T04:45:33.384Z,4.10
2019-03-06T04:50:38.414Z,3.90
2019-03-06T04:55:47.583Z,3.80
2019-03-06T05:00:58.323Z,3.90
2019-03-06T05:06:02.808Z,3.80
2019-03-06T05:11:16.050Z,3.90
2019-03-06T05:16:32.370Z,3.90
2019-03-06T05:21:37.626Z,3.70
2019-03-06T05:26:58.533Z,3.80
2019-03-06T05:32:31.865Z,3.80
2019-03-06T05:38:01.091Z,3.90
2019-03-06T05:43:10.066Z,3.90
2019-03-06T05:48:16.729Z,3.90
2019-03-06T05:53:27.411Z,4.10
2019-03-06T05:58:34.409Z,4.00
2019-03-06T06:03:40.590Z,4.00
2019-03-06T06:09:05.822Z,4.10
2019-03-06T06:14:11.679Z,4.10
2019-03-06T06:19:26.768Z,4.10
2019-03-06T06:24:39.190Z,4.10
2019-03-06T06:29:58.484Z,4.00
2019-03-06T06:35:00.390Z,4.10
2019-03-06T06:40:18.001Z,4.10
2019-03-06T06:45:23.260Z,4.20
2019-03-06T06:50:27.390Z,4.20
2019-03-06T06:56:13.505Z,4.30
2019-03-06T07:02:27.473Z,4.10
2019-03-06T07:07:52.084Z,4.60
2019-03-06T07:13:27.472Z,4.60
2019-03-06T07:18:42.027Z,4.50
2019-03-06T07:24:06.429Z,4.30
2019-03-06T07:29:47.256Z,4.40
2019-03-06T07:36:04.367Z,4.20
2019-03-06T07:41:34.090Z,4.40
2019-03-06T07:46:58.916Z,4.60
2019-03-06T07:52:25.365Z,4.70
2019-03-06T07:57:51.083Z,4.70
2019-03-06T08:03:17.250Z,4.70
2019-03-06T08:08:23.123Z,5.00
2019-03-06T08:13:38.416Z,5.00
2019-03-06T08:18:58.481Z,5.20
2019-03-06T08:24:23.956Z,5.20
2019-03-06T08:29:34.074Z,4.90
2019-03-06T08:34:49.959Z,5.00
2019-03-06T08:40:13.413Z,5.10
2019-03-06T08:45:23.687Z,5.10
2019-03-06T08:50:48.677Z,5.40
2019-03-06T08:56:09.503Z,5.60
2019-03-06T09:02:00.107Z,5.40
2019-03-06T09:07:15.757Z,5.70
2019-03-06T09:12:36.445Z,5.70
2019-03-06T09:18:09.347Z,5.60
2019-03-06T09:23:34.557Z,5.90
2019-03-06T09:28:48.111Z,5.90
2019-03-06T09:34:22.730Z,6.10
2019-03-06T09:39:50.823Z,6.20
2019-03-06T09:45:18.126Z,6.30
2019-03-06T09:50:32.488Z,6.40
2019-03-06T09:55:53.211Z,6.50
2019-03-06T10:01:17.033Z,6.70
2019-03-06T10:06:39.312Z,7.00
2019-03-06T10:11:54.547Z,7.00
2019-03-06T10:17:12.605Z,7.40
2019-03-06T10:22:15.486Z,7.40
2019-03-06T10:27:18.307Z,7.70
2019-03-06T10:32:23.963Z,8.00
2019-03-06T10:37:26.865Z,8.00
2019-03-06T10:42:32.743Z,8.20
2019-03-06T10:47:38.653Z,8.10
2019-03-06T10:52:41.483Z,8.00
2019-03-06T10:57:53.427Z,8.20
2019-03-06T11:02:57.003Z,8.40
2019-03-06T11:08:01.199Z,8.60
2019-03-06T11:13:08.731Z,8.70
2019-03-06T11:18:11.829Z,8.80
2019-03-06T11:23:15.079Z,9.50
2019-03-06T11:28:18.121Z,9.50
2019-03-06T11:33:22.055Z,9.50
2019-03-06T11:38:28.516Z,9.80
2019-03-06T11:43:31.441Z,9.40
2019-03-06T11:48:34.291Z,9.40
2019-03-06T11:53:37.196Z,9.50
2019-03-06T11:58:40.138Z,9.60
2019-03-06T12:03:44.462Z,9.50
2019-03-06T12:08:47.331Z,9.70
2019-03-06T12:13:50.154Z,9.70
2019-03-06T12:18:52.978Z,9.90
2019-03-06T12:23:55.830Z,10.00
2019-03-06T12:28:58.742Z,10.00
2019-03-06T12:34:01.595Z,9.80
2019-03-06T12:39:11.547Z,9.90
2019-03-06T12:44:20.286Z,9.90
2019-03-06T12:49:25.209Z,9.90
2019-03-06T12:54:31.125Z,9.90
2019-03-06T12:59:33.941Z,9.90
2019-03-06T13:04:36.848Z,9.90
2019-03-06T13:09:39.699Z,9.90
2019-03-06T13:14:42.616Z,10.00
2019-03-06T13:19:48.587Z,10.10
2019-03-06T13:24:57.344Z,10.10
2019-03-06T13:30:00.311Z,10.10
2019-03-06T13:35:05.219Z,10.20
2019-03-06T13:40:08.150Z,10.10
2019-03-06T13:45:18.176Z,10.10
2019-03-06T13:50:21.438Z,10.10
2019-03-06T13:55:24.271Z,10.10
2019-03-06T14:00:27.126Z,10.10
2019-03-06T14:05:30.247Z,10.20
2019-03-06T14:10:33.163Z,10.20
2019-03-06T14:15:39.214Z,10.30
2019-03-06T14:20:42.106Z,10.30
2019-03-06T14:25:45.278Z,10.30
2019-03-06T14:30:48.130Z,10.30
2019-03-06T14:35:50.984Z,10.40
2019-03-06T14:40:59.903Z,10.50
2019-03-06T14:46:06.122Z,10.60
2019-03-06T14:51:09.151Z,10.60
2019-03-06T14:56:16.509Z,10.60
2019-03-06T15:01:19.672Z,10.70
2019-03-06T15:06:22.519Z,10.60
2019-03-06T15:11:32.932Z,10.70
2019-03-06T15:16:30.053Z,10.70
2019-03-06T15:21:35.776Z,10.60
2019-03-06T15:26:38.626Z,10.70
2019-03-06T15:31:42.068Z,10.60
2019-03-06T15:36:45.207Z,10.60
2019-03-06T15:41:48.101Z,10.60
2019-03-06T15:46:50.973Z,10.60
2019-03-06T15:51:53.907Z,10.60
2019-03-06T15:56:56.717Z,10.50
2019-03-06T16:01:59.644Z,10.50
2019-03-06T16:07:02.773Z,10.50
2019-03-06T16:12:05.814Z,10.50
2019-03-06T16:17:21.374Z,10.40
2019-03-06T16:22:24.347Z,10.50
2019-03-06T16:27:27.385Z,10.40
2019-03-06T16:32:30.228Z,10.50
2019-03-06T16:37:33.121Z,10.40
2019-03-06T16:42:41.848Z,10.40
2019-03-06T16:47:44.775Z,10.30
2019-03-06T16:52:51.044Z,10.20
2019-03-06T16:57:55.019Z,10.20
2019-03-06T17:02:58.666Z,10.20
2019-03-06T17:08:01.756Z,10.20
2019-03-06T17:13:04.690Z,10.30
2019-03-06T17:18:07.716Z,10.30
2019-03-06T17:23:10.534Z,10.30
2019-03-06T17:28:16.555Z,10.20
2019-03-06T17:33:19.631Z,10.20
2019-03-06T17:38:22.581Z,10.20
2019-03-06T17:43:25.519Z,9.80
2019-03-06T17:48:28.512Z,9.80
2019-03-06T17:53:35.628Z,9.60
2019-03-06T17:58:41.225Z,9.50
2019-03-06T18:03:57.059Z,9.50
2019-03-06T18:08:59.881Z,9.50
2019-03-06T18:14:04.557Z,9.40
2019-03-06T18:19:07.335Z,9.30
2019-03-06T18:24:10.265Z,9.40
2019-03-06T18:29:14.724Z,9.40
2019-03-06T18:34:17.966Z,9.40
2019-03-06T18:39:25.171Z,9.40
2019-03-06T18:44:28.226Z,9.30
2019-03-06T18:49:31.037Z,9.40
2019-03-06T18:54:33.846Z,9.30
2019-03-06T18:59:36.766Z,9.30
2019-03-06T19:04:39.569Z,9.30
2019-03-06T19:09:42.777Z,9.30
2019-03-06T19:14:49.331Z,9.20
2019-03-06T19:19:52.860Z,9.40
2019-03-06T19:24:55.671Z,9.20
2019-03-06T19:29:58.444Z,9.20
2019-03-06T19:35:01.312Z,9.20
2019-03-06T19:40:04.623Z,9.20
2019-03-06T19:45:08.756Z,9.20
2019-03-06T19:50:14.209Z,9.30
2019-03-06T19:55:17.996Z,9.20
2019-03-06T20:00:21.710Z,9.10
2019-03-06T20:05:27.963Z,9.20
2019-03-06T20:10:34.683Z,9.20
2019-03-06T20:15:40.737Z,9.30
2019-03-06T20:20:43.556Z,9.20
2019-03-06T20:25:48.568Z,9.30
2019-03-06T20:30:57.517Z,9.30
2019-03-06T20:36:00.351Z,9.30
2019-03-06T20:41:03.773Z,9.40
2019-03-06T20:46:06.567Z,9.40
2019-03-06T20:51:09.361Z,9.40
2019-03-06T20:56:12.171Z,9.50
2019-03-06T21:01:14.971Z,9.50
2019-03-06T21:06:18.277Z,9.50
2019-03-06T21:11:21.113Z,9.60
2019-03-06T21:16:23.945Z,9.60
2019-03-06T21:21:29.562Z,9.60
2019-03-06T21:26:32.400Z,9.70
2019-03-06T21:31:35.534Z,9.70
2019-03-06T21:36:39.089Z,9.70
2019-03-06T21:41:41.885Z,9.80
2019-03-06T21:46:44.716Z,9.80
2019-03-06T21:51:48.056Z,9.80
2019-03-06T21:56:51.155Z,9.70
2019-03-06T22:01:54.074Z,9.70
2019-03-06T22:06:56.971Z,9.70
2019-03-06T22:11:59.830Z,9.70
2019-03-06T22:17:03.096Z,9.70
2019-03-06T22:22:06.117Z,9.70
2019-03-06T22:27:08.954Z,9.60
2019-03-06T22:32:12.367Z,9.70
2019-03-06T22:37:15.825Z,9.70
2019-03-06T22:42:18.737Z,9.60
2019-03-06T22:47:21.550Z,9.70
2019-03-06T22:52:30.270Z,9.80
2019-03-06T22:57:33.128Z,9.90
2019-03-06T23:02:36.653Z,10.00
2019-03-06T23:07:41.804Z,10.00
2019-03-06T23:12:44.624Z,10.00
2019-03-06T23:17:47.510Z,10.10
2019-03-06T23:22:51.040Z,10.00
2019-03-06T23:27:53.894Z,10.10
2019-03-06T23:32:56.690Z,10.10
2019-03-06T23:37:59.854Z,10.10
2019-03-06T23:43:03.251Z,10.10
2019-03-06T23:48:06.070Z,10.10
2019-03-06T23:53:10.653Z,10.10
2019-03-06T23:58:13.787Z,10.10
